createdAt,value
2019-01-26T00:00:55.716Z,26.80
2019-01-26T00:01:55.712Z,27.40
2019-01-26T00:02:55.698Z,27.40
2019-01-26T00:03:55.706Z,27.10
2019-01-26T00:04:55.677Z,27.70
2019-01-26T00:05:55.703Z,26.80
2019-01-26T00:06:55.656Z,27.00
2019-01-26T00:07:55.649Z,27.80
2019-01-26T00:08:55.676Z,27.40
2019-01-26T00:09:55.686Z,27.10
2019-01-26T00:10:55.612Z,27.80
2019-01-26T00:11:55.600Z,27.70
2019-01-26T00:12:55.590Z,27.60
2019-01-26T00:13:55.580Z,27.30
2019-01-26T00:14:55.568Z,26.10
2019-01-26T00:15:55.562Z,27.20
2019-01-26T00:16:55.542Z,27.50
2019-01-26T00:17:55.540Z,26.60
2019-01-26T00:18:55.524Z,26.60
2019-01-26T00:19:55.518Z,27.10
2019-01-26T00:20:55.514Z,27.50
2019-01-26T00:21:55.493Z,25.90
2019-01-26T00:22:55.483Z,26.60
2019-01-26T00:23:55.466Z,28.00
2019-01-26T00:24:55.492Z,27.50
2019-01-26T00:25:55.449Z,28.30
2019-01-26T00:26:55.438Z,27.70
2019-01-26T00:27:55.438Z,26.80
2019-01-26T00:28:55.413Z,27.60
2019-01-26T00:29:55.413Z,27.00
2019-01-26T00:30:55.411Z,27.10
2019-01-26T00:31:55.381Z,26.30
2019-01-26T00:32:55.373Z,27.60
2019-01-26T00:33:55.366Z,27.00
2019-01-26T00:34:55.351Z,27.30
2019-01-26T00:35:55.354Z,28.10
2019-01-26T00:36:55.338Z,29.30
2019-01-26T00:37:55.320Z,27.20
2019-01-26T00:38:55.304Z,27.90
2019-01-26T00:39:55.297Z,27.10
2019-01-26T00:40:55.283Z,25.60
2019-01-26T00:41:55.287Z,27.40
2019-01-26T00:42:55.262Z,28.70
2019-01-26T00:43:55.250Z,28.60
2019-01-26T00:44:55.240Z,27.50
2019-01-26T00:45:55.225Z,27.90
2019-01-26T00:46:55.223Z,26.70
2019-01-26T00:47:55.216Z,28.10
2019-01-26T00:48:55.203Z,28.50
2019-01-26T00:49:55.185Z,28.70
2019-01-26T00:50:55.174Z,29.60
2019-01-26T00:51:55.181Z,29.60
2019-01-26T00:52:55.157Z,28.40
2019-01-26T00:53:55.151Z,28.60
2019-01-26T00:54:55.130Z,30.70
2019-01-26T00:55:55.117Z,30.50
2019-01-26T00:56:55.110Z,30.60
2019-01-26T00:57:55.104Z,28.70
2019-01-26T00:58:55.090Z,29.90
2019-01-26T00:59:55.137Z,30.30
2019-01-26T01:00:55.062Z,29.60
2019-01-26T01:01:55.053Z,30.90
2019-01-26T01:02:55.042Z,30.30
2019-01-26T01:03:55.027Z,30.10
2019-01-26T01:04:55.023Z,29.40
2019-01-26T01:05:55.051Z,28.70
2019-01-26T01:06:54.995Z,28.10
2019-01-26T01:07:55.020Z,28.60
2019-01-26T01:08:54.974Z,28.90
2019-01-26T01:09:54.963Z,28.70
2019-01-26T01:10:54.992Z,30.00
2019-01-26T01:11:54.943Z,28.80
2019-01-26T01:12:54.932Z,29.20
2019-01-26T01:13:54.921Z,28.30
2019-01-26T01:14:54.947Z,30.00
2019-01-26T01:15:54.895Z,28.70
2019-01-26T01:16:54.885Z,28.20
2019-01-26T01:17:54.880Z,28.30
2019-01-26T01:18:54.893Z,28.60
2019-01-26T01:19:54.851Z,29.10
2019-01-26T01:20:54.939Z,29.90
2019-01-26T01:21:54.907Z,30.00
2019-01-26T01:22:54.824Z,28.60
2019-01-26T01:23:54.813Z,30.60
2019-01-26T01:24:54.802Z,29.70
2019-01-26T01:25:54.833Z,29.40
2019-01-26T01:26:54.775Z,29.70
2019-01-26T01:27:54.768Z,29.70
2019-01-26T01:28:54.759Z,29.30
2019-01-26T01:29:54.746Z,29.40
2019-01-26T01:30:54.731Z,29.70
2019-01-26T01:31:54.762Z,29.60
2019-01-26T01:32:54.714Z,30.00
2019-01-26T01:33:54.699Z,29.30
2019-01-26T01:34:54.778Z,29.20
2019-01-26T01:35:54.681Z,30.80
2019-01-26T01:36:54.722Z,30.50
2019-01-26T01:37:54.700Z,31.30
2019-01-26T01:38:54.643Z,30.00
2019-01-26T01:39:54.636Z,30.90
2019-01-26T01:40:54.620Z,31.10
2019-01-26T01:41:54.659Z,30.50
2019-01-26T01:42:54.599Z,29.70
2019-01-26T01:43:54.592Z,30.10
2019-01-26T01:44:54.580Z,30.80
2019-01-26T01:45:54.567Z,30.90
2019-01-26T01:46:54.556Z,30.80
2019-01-26T01:47:54.561Z,31.50
2019-01-26T01:48:54.537Z,30.00
2019-01-26T01:49:54.526Z,30.90
2019-01-26T01:50:54.512Z,30.60
2019-01-26T01:51:54.504Z,31.90
2019-01-26T01:52:54.530Z,30.60
2019-01-26T01:53:54.482Z,29.90
2019-01-26T01:54:54.538Z,32.20
2019-01-26T01:55:54.457Z,30.30
2019-01-26T01:56:54.450Z,28.80
2019-01-26T01:57:54.440Z,30.60
2019-01-26T01:58:54.469Z,28.00
2019-01-26T01:59:54.418Z,27.40
2019-01-26T02:00:54.408Z,30.20
2019-01-26T02:01:54.397Z,29.00
2019-01-26T02:02:54.380Z,29.20
2019-01-26T02:03:54.408Z,30.10
2019-01-26T02:04:54.358Z,29.10
2019-01-26T02:05:54.345Z,29.00
2019-01-26T02:06:54.347Z,29.20
2019-01-26T02:07:54.324Z,28.50
2019-01-26T02:08:54.319Z,30.90
2019-01-26T02:09:54.316Z,28.70
2019-01-26T02:10:54.343Z,28.00
2019-01-26T02:11:54.282Z,29.60
2019-01-26T02:12:54.274Z,29.00
2019-01-26T02:13:54.257Z,28.90
2019-01-26T02:14:54.252Z,28.40
2019-01-26T02:15:54.242Z,26.50
2019-01-26T02:16:54.274Z,28.10
2019-01-26T02:17:54.229Z,28.20
2019-01-26T02:18:54.205Z,29.40
2019-01-26T02:19:54.195Z,27.50
2019-01-26T02:20:54.186Z,28.20
2019-01-26T02:21:54.220Z,28.50
2019-01-26T02:22:54.162Z,29.70
2019-01-26T02:23:54.156Z,29.50
2019-01-26T02:24:54.166Z,30.20
2019-01-26T02:25:54.181Z,29.40
2019-01-26T02:26:54.118Z,29.50
2019-01-26T02:27:54.110Z,29.90
2019-01-26T02:28:54.138Z,29.10
2019-01-26T02:29:54.101Z,28.60
2019-01-26T02:30:54.075Z,30.20
2019-01-26T02:31:54.070Z,29.50
2019-01-26T02:32:54.748Z,29.50
2019-01-26T02:33:54.603Z,30.60
2019-01-26T02:34:54.098Z,29.90
2019-01-26T02:35:54.081Z,31.30
2019-01-26T02:36:54.029Z,31.30
2019-01-26T02:37:53.999Z,31.80
2019-01-26T02:38:53.997Z,31.50
2019-01-26T02:39:53.980Z,31.50
2019-01-26T02:40:54.007Z,31.90
2019-01-26T02:41:53.951Z,33.00
2019-01-26T02:42:53.946Z,32.80
2019-01-26T02:43:53.933Z,31.90
2019-01-26T02:44:53.919Z,32.50
2019-01-26T02:45:53.911Z,33.00
2019-01-26T02:46:58.028Z,32.10
2019-01-26T02:47:53.887Z,34.10
2019-01-26T02:48:53.881Z,33.90
2019-01-26T02:49:53.868Z,32.50
2019-01-26T02:50:53.869Z,31.60
2019-01-26T02:51:53.892Z,34.30
2019-01-26T02:52:53.836Z,33.20
2019-01-26T02:53:53.822Z,31.80
2019-01-26T02:54:53.814Z,34.00
2019-01-26T02:55:53.839Z,32.50
2019-01-26T02:56:53.798Z,32.10
2019-01-26T02:57:53.787Z,32.30
2019-01-26T02:58:53.767Z,32.30
2019-01-26T02:59:53.762Z,33.00
2019-01-26T03:00:53.744Z,32.40
2019-01-26T03:01:53.742Z,33.40
2019-01-26T03:02:53.726Z,32.80
2019-01-26T03:03:53.715Z,34.10
2019-01-26T03:04:53.704Z,34.60
2019-01-26T03:05:53.694Z,33.70
2019-01-26T03:06:53.716Z,32.80
2019-01-26T03:07:53.672Z,33.10
2019-01-26T03:08:53.661Z,34.10
2019-01-26T03:09:53.653Z,33.00
2019-01-26T03:10:53.681Z,32.10
2019-01-26T03:11:53.630Z,34.10
2019-01-26T03:12:53.617Z,34.20
2019-01-26T03:13:53.606Z,33.20
2019-01-26T03:14:53.592Z,32.40
2019-01-26T03:15:53.579Z,33.50
2019-01-26T03:16:53.601Z,33.60
2019-01-26T03:17:53.601Z,32.70
2019-01-26T03:18:53.550Z,34.10
2019-01-26T03:19:53.536Z,35.20
2019-01-26T03:20:53.539Z,34.50
2019-01-26T03:21:53.521Z,35.70
2019-01-26T03:22:53.658Z,35.10
2019-01-26T03:23:53.520Z,33.80
2019-01-26T03:24:53.484Z,35.60
2019-01-26T03:25:53.472Z,32.90
2019-01-26T03:26:53.464Z,35.10
2019-01-26T03:27:53.587Z,34.50
2019-01-26T03:28:53.438Z,35.40
2019-01-26T03:29:53.435Z,33.90
2019-01-26T03:30:53.423Z,35.70
2019-01-26T03:31:53.405Z,34.60
2019-01-26T03:32:53.413Z,34.90
2019-01-26T03:33:53.417Z,34.60
2019-01-26T03:34:53.372Z,35.00
2019-01-26T03:35:53.406Z,35.20
2019-01-26T03:36:53.358Z,35.60
2019-01-26T03:37:53.356Z,34.50
2019-01-26T03:38:54.728Z,34.90
2019-01-26T03:39:53.323Z,36.30
2019-01-26T03:40:53.309Z,36.30
2019-01-26T03:41:53.295Z,35.00
2019-01-26T03:42:53.311Z,36.70
2019-01-26T03:43:53.276Z,36.20
2019-01-26T03:44:53.304Z,35.40
2019-01-26T03:45:53.252Z,35.60
2019-01-26T03:46:53.250Z,35.80
2019-01-26T03:47:53.289Z,33.90
2019-01-26T03:48:53.220Z,35.40
2019-01-26T03:49:53.724Z,36.50
2019-01-26T03:50:53.208Z,36.60
2019-01-26T03:51:53.188Z,35.80
2019-01-26T03:52:53.235Z,35.30
2019-01-26T03:53:53.212Z,34.90
2019-01-26T03:54:53.156Z,36.60
2019-01-26T03:55:53.161Z,34.20
2019-01-26T03:56:53.137Z,34.20
2019-01-26T03:57:53.129Z,35.40
2019-01-26T03:58:53.110Z,35.80
2019-01-26T03:59:53.140Z,32.00
2019-01-26T04:00:53.103Z,33.80
2019-01-26T04:01:53.081Z,33.90
2019-01-26T04:02:53.074Z,34.50
2019-01-26T04:03:53.103Z,34.40
2019-01-26T04:04:53.045Z,35.60
2019-01-26T04:05:53.041Z,32.90
2019-01-26T04:06:53.024Z,34.30
2019-01-26T04:07:53.017Z,34.00
2019-01-26T04:08:53.049Z,34.60
2019-01-26T04:09:53.008Z,36.40
2019-01-26T04:10:53.632Z,34.60
2019-01-26T04:11:52.967Z,35.20
2019-01-26T04:12:53.047Z,33.00
2019-01-26T04:13:52.955Z,33.10
2019-01-26T04:14:53.064Z,33.10
2019-01-26T04:15:52.930Z,33.80
2019-01-26T04:16:52.915Z,34.20
2019-01-26T04:17:52.909Z,33.80
2019-01-26T04:18:52.899Z,34.50
2019-01-26T04:19:52.882Z,32.70
2019-01-26T04:20:52.884Z,34.90
2019-01-26T04:21:52.860Z,34.40
2019-01-26T04:22:52.874Z,33.20
2019-01-26T04:23:52.843Z,34.90
2019-01-26T04:24:52.887Z,36.10
2019-01-26T04:25:52.820Z,35.10
2019-01-26T04:26:52.817Z,35.20
2019-01-26T04:27:52.796Z,36.40
2019-01-26T04:28:52.786Z,36.00
2019-01-26T04:29:52.786Z,36.00
2019-01-26T04:30:52.810Z,35.70
2019-01-26T04:31:52.750Z,34.30
2019-01-26T04:32:52.747Z,32.80
2019-01-26T04:33:52.731Z,34.00
2019-01-26T04:34:52.720Z,34.20
2019-01-26T04:35:52.753Z,34.70
2019-01-26T04:36:52.697Z,33.80
2019-01-26T04:37:52.686Z,32.50
2019-01-26T04:38:52.741Z,34.20
2019-01-26T04:39:52.669Z,33.10
2019-01-26T04:40:52.654Z,35.90
2019-01-26T04:41:52.641Z,35.00
2019-01-26T04:42:52.644Z,33.40
2019-01-26T04:43:52.621Z,34.50
2019-01-26T04:44:52.657Z,33.70
2019-01-26T04:45:52.606Z,35.00
2019-01-26T04:46:52.591Z,33.80
2019-01-26T04:47:52.587Z,34.30
2019-01-26T04:48:52.580Z,35.10
2019-01-26T04:49:52.560Z,34.00
2019-01-26T04:50:52.589Z,34.80
2019-01-26T04:51:52.537Z,35.00
2019-01-26T04:52:52.527Z,34.70
2019-01-26T04:53:52.515Z,34.50
2019-01-26T04:54:52.504Z,37.40
2019-01-26T04:55:52.494Z,36.70
2019-01-26T04:56:53.214Z,35.60
2019-01-26T04:57:52.466Z,34.50
2019-01-26T04:58:52.462Z,35.10
2019-01-26T04:59:52.448Z,36.20
2019-01-26T05:00:52.439Z,36.80
2019-01-26T05:01:52.423Z,36.10
2019-01-26T05:02:52.434Z,35.00
2019-01-26T05:03:52.411Z,37.70
2019-01-26T05:04:52.411Z,38.10
2019-01-26T05:05:52.386Z,37.10
2019-01-26T05:06:52.370Z,36.60
2019-01-26T05:07:52.408Z,37.60
2019-01-26T05:08:52.352Z,38.00
2019-01-26T05:09:52.335Z,37.00
2019-01-26T05:10:52.328Z,37.80
2019-01-26T05:11:52.324Z,37.20
2019-01-26T05:12:52.313Z,36.90
2019-01-26T05:13:52.310Z,35.70
2019-01-26T05:14:52.295Z,34.80
2019-01-26T05:15:52.273Z,35.10
2019-01-26T05:16:52.269Z,35.70
2019-01-26T05:17:52.268Z,35.20
2019-01-26T05:18:52.306Z,34.50
2019-01-26T05:19:52.234Z,35.30
2019-01-26T05:20:52.220Z,34.90
2019-01-26T05:21:52.210Z,36.80
2019-01-26T05:22:52.202Z,37.00
2019-01-26T05:23:52.191Z,35.30
2019-01-26T05:24:52.186Z,36.30
2019-01-26T05:25:52.164Z,36.30
2019-01-26T05:26:52.150Z,37.30
2019-01-26T05:27:52.152Z,36.90
2019-01-26T05:28:52.178Z,37.80
2019-01-26T05:29:52.139Z,39.00
2019-01-26T05:30:52.112Z,40.60
2019-01-26T05:31:52.098Z,40.00
2019-01-26T05:32:52.093Z,39.80
2019-01-26T05:33:52.082Z,39.70
2019-01-26T05:34:52.137Z,40.40
2019-01-26T05:35:52.059Z,38.40
2019-01-26T05:36:52.047Z,38.10
2019-01-26T05:37:52.037Z,37.50
2019-01-26T05:38:52.021Z,33.90
2019-01-26T05:39:52.008Z,35.20
2019-01-26T05:40:52.039Z,38.70
2019-01-26T05:41:51.993Z,40.50
2019-01-26T05:42:51.980Z,39.20
2019-01-26T05:43:51.973Z,47.70
2019-01-26T05:44:51.960Z,40.30
2019-01-26T05:45:51.972Z,38.70
2019-01-26T05:46:51.947Z,37.30
2019-01-26T05:47:51.923Z,37.00
2019-01-26T05:48:51.914Z,37.80
2019-01-26T05:49:51.906Z,37.90
2019-01-26T05:50:51.943Z,36.80
2019-01-26T05:51:51.900Z,39.10
2019-01-26T05:52:51.907Z,37.00
2019-01-26T05:53:51.871Z,39.90
2019-01-26T05:54:51.857Z,38.20
2019-01-26T05:55:51.838Z,37.40
2019-01-26T05:56:51.855Z,38.50
2019-01-26T05:57:51.824Z,37.00
2019-01-26T05:58:51.805Z,38.10
2019-01-26T05:59:51.796Z,39.30
2019-01-26T06:00:51.785Z,38.70
2019-01-26T06:01:51.833Z,39.20
2019-01-26T06:02:51.764Z,39.70
2019-01-26T06:03:51.750Z,39.80
2019-01-26T06:04:51.743Z,38.40
2019-01-26T06:05:51.759Z,38.80
2019-01-26T06:06:51.723Z,39.10
2019-01-26T06:07:51.710Z,38.90
2019-01-26T06:08:51.698Z,38.60
2019-01-26T06:09:51.706Z,39.10
2019-01-26T06:10:51.721Z,40.80
2019-01-26T06:11:51.661Z,41.20
2019-01-26T06:12:51.699Z,39.60
2019-01-26T06:13:51.638Z,39.20
2019-01-26T06:14:51.636Z,39.40
2019-01-26T06:15:51.644Z,39.10
2019-01-26T06:16:51.614Z,38.80
2019-01-26T06:17:55.262Z,39.20
2019-01-26T06:18:51.590Z,37.60
2019-01-26T06:19:51.581Z,38.80
2019-01-26T06:20:51.568Z,41.70
2019-01-26T06:21:51.555Z,40.10
2019-01-26T06:22:51.607Z,40.50
2019-01-26T06:23:51.535Z,41.10
2019-01-26T06:24:51.524Z,41.40
2019-01-26T06:25:51.513Z,42.10
2019-01-26T06:26:52.135Z,38.00
2019-01-26T06:27:51.491Z,39.60
2019-01-26T06:28:51.485Z,38.80
2019-01-26T06:29:51.466Z,39.00
2019-01-26T06:30:51.455Z,38.40
2019-01-26T06:31:51.449Z,37.60
2019-01-26T06:32:51.438Z,39.70
2019-01-26T06:33:51.470Z,39.50
2019-01-26T06:34:51.411Z,39.90
2019-01-26T06:35:51.400Z,38.60
2019-01-26T06:36:51.393Z,39.70
2019-01-26T06:37:51.377Z,40.10
2019-01-26T06:38:51.371Z,38.60
2019-01-26T06:39:51.423Z,37.40
2019-01-26T06:40:51.353Z,38.70
2019-01-26T06:41:51.333Z,38.90
2019-01-26T06:42:51.330Z,36.80
2019-01-26T06:43:51.313Z,37.00
2019-01-26T06:44:51.303Z,38.30
2019-01-26T06:45:51.350Z,37.60
2019-01-26T06:46:51.282Z,35.10
2019-01-26T06:47:51.269Z,37.40
2019-01-26T06:48:51.269Z,37.90
2019-01-26T06:49:51.252Z,37.30
2019-01-26T06:50:51.237Z,35.30
2019-01-26T06:51:51.272Z,37.80
2019-01-26T06:52:51.215Z,38.70
2019-01-26T06:53:51.205Z,38.90
2019-01-26T06:54:51.198Z,38.20
2019-01-26T06:55:51.182Z,39.50
2019-01-26T06:56:51.177Z,38.70
2019-01-26T06:57:51.191Z,37.50
2019-01-26T06:58:51.150Z,39.40
2019-01-26T06:59:51.146Z,38.10
2019-01-26T07:00:51.156Z,36.70
2019-01-26T07:01:51.116Z,38.00
2019-01-26T07:02:51.180Z,37.50
2019-01-26T07:03:51.209Z,38.80
2019-01-26T07:04:51.085Z,36.40
2019-01-26T07:05:51.075Z,37.60
2019-01-26T07:06:51.644Z,35.30
2019-01-26T07:07:51.055Z,38.20
2019-01-26T07:08:51.089Z,37.70
2019-01-26T07:09:51.031Z,38.70
2019-01-26T07:10:51.023Z,37.90
2019-01-26T07:11:51.010Z,35.20
2019-01-26T07:12:51.008Z,37.90
2019-01-26T07:13:51.037Z,38.30
2019-01-26T07:14:50.978Z,38.00
2019-01-26T07:15:50.984Z,38.30
2019-01-26T07:16:50.955Z,39.00
2019-01-26T07:17:50.955Z,38.30
2019-01-26T07:18:50.933Z,39.00
2019-01-26T07:19:50.969Z,36.70
2019-01-26T07:20:50.929Z,37.00
2019-01-26T07:21:50.908Z,38.20
2019-01-26T07:22:50.921Z,40.00
2019-01-26T07:23:50.879Z,39.90
2019-01-26T07:24:50.915Z,41.00
2019-01-26T07:25:50.859Z,41.20
2019-01-26T07:26:50.856Z,40.30
2019-01-26T07:27:50.836Z,38.80
2019-01-26T07:28:50.843Z,40.40
2019-01-26T07:29:50.842Z,39.80
2019-01-26T07:30:50.840Z,38.70
2019-01-26T07:31:50.795Z,39.60
2019-01-26T07:32:50.788Z,40.00
2019-01-26T07:33:50.773Z,38.60
2019-01-26T07:34:50.766Z,39.80
2019-01-26T07:35:50.799Z,40.90
2019-01-26T07:36:50.786Z,41.50
2019-01-26T07:37:50.796Z,39.30
2019-01-26T07:38:50.722Z,40.80
2019-01-26T07:39:50.708Z,40.50
2019-01-26T07:40:50.705Z,40.10
2019-01-26T07:41:50.683Z,41.90
2019-01-26T07:42:50.673Z,40.50
2019-01-26T07:43:50.677Z,41.60
2019-01-26T07:44:50.669Z,42.60
2019-01-26T07:45:50.641Z,40.10
2019-01-26T07:46:50.699Z,41.50
2019-01-26T07:47:50.620Z,41.80
2019-01-26T07:48:50.617Z,41.90
2019-01-26T07:49:50.602Z,40.50
2019-01-26T07:50:50.593Z,40.10
2019-01-26T07:51:50.575Z,38.60
2019-01-26T07:52:50.685Z,40.10
2019-01-26T07:53:50.559Z,41.20
2019-01-26T07:54:50.614Z,39.90
2019-01-26T07:55:50.534Z,41.40
2019-01-26T07:56:50.554Z,41.30
2019-01-26T07:57:50.543Z,41.50
2019-01-26T07:58:50.534Z,43.10
2019-01-26T07:59:50.488Z,42.70
2019-01-26T08:00:50.481Z,42.10
2019-01-26T08:01:50.467Z,41.80
2019-01-26T08:02:50.505Z,39.50
2019-01-26T08:03:50.450Z,39.30
2019-01-26T08:04:50.458Z,40.10
2019-01-26T08:05:50.428Z,38.50
2019-01-26T08:06:50.415Z,38.00
2019-01-26T08:07:50.452Z,38.30
2019-01-26T08:08:50.439Z,39.40
2019-01-26T08:09:50.384Z,39.80
2019-01-26T08:10:50.374Z,39.50
2019-01-26T08:11:50.358Z,43.80
2019-01-26T08:12:50.356Z,40.90
2019-01-26T08:13:50.352Z,41.50
2019-01-26T08:14:50.325Z,42.40
2019-01-26T08:15:50.356Z,41.70
2019-01-26T08:16:50.308Z,39.70
2019-01-26T08:17:50.293Z,38.90
2019-01-26T08:18:50.289Z,39.20
2019-01-26T08:19:50.277Z,37.80
2019-01-26T08:20:50.275Z,36.10
2019-01-26T08:21:50.342Z,36.60
2019-01-26T08:22:50.242Z,38.00
2019-01-26T08:23:50.226Z,38.50
2019-01-26T08:24:50.223Z,39.30
2019-01-26T08:25:50.212Z,37.10
2019-01-26T08:26:50.215Z,39.30
2019-01-26T08:27:50.182Z,37.60
2019-01-26T08:28:50.172Z,35.30
2019-01-26T08:29:50.162Z,36.30
2019-01-26T08:30:50.148Z,37.80
2019-01-26T08:31:50.137Z,35.80
2019-01-26T08:32:50.138Z,37.00
2019-01-26T08:33:50.115Z,36.00
2019-01-26T08:34:50.105Z,36.60
2019-01-26T08:35:50.098Z,34.10
2019-01-26T08:36:50.085Z,34.70
2019-01-26T08:37:50.088Z,34.20
2019-01-26T08:38:50.066Z,34.60
2019-01-26T08:39:50.055Z,34.10
2019-01-26T08:40:50.053Z,33.20
2019-01-26T08:41:50.031Z,35.10
2019-01-26T08:42:50.032Z,35.00
2019-01-26T08:43:51.285Z,34.70
2019-01-26T08:44:50.000Z,32.40
2019-01-26T08:45:49.999Z,32.50
2019-01-26T08:46:49.990Z,35.30
2019-01-26T08:47:49.967Z,35.10
2019-01-26T08:48:49.961Z,34.90
2019-01-26T08:49:49.943Z,35.20
2019-01-26T08:50:49.933Z,34.80
2019-01-26T08:51:49.950Z,34.40
2019-01-26T08:52:49.913Z,32.10
2019-01-26T08:53:49.894Z,31.40
2019-01-26T08:54:49.896Z,34.20
2019-01-26T08:55:49.888Z,34.90
2019-01-26T08:56:49.863Z,32.90
2019-01-26T08:57:49.868Z,34.10
2019-01-26T08:58:49.847Z,33.20
2019-01-26T08:59:49.839Z,36.10
2019-01-26T09:00:49.818Z,32.90
2019-01-26T09:01:49.815Z,35.30
2019-01-26T09:02:49.800Z,34.10
2019-01-26T09:03:49.788Z,32.30
2019-01-26T09:04:49.780Z,34.70
2019-01-26T09:05:49.762Z,33.90
2019-01-26T09:06:49.769Z,34.10
2019-01-26T09:07:49.750Z,32.90
2019-01-26T09:08:49.736Z,32.10
2019-01-26T09:09:49.720Z,32.30
2019-01-26T09:10:49.717Z,32.60
2019-01-26T09:11:49.700Z,32.00
2019-01-26T09:12:49.713Z,31.80
2019-01-26T09:13:49.675Z,32.20
2019-01-26T09:14:49.669Z,32.20
2019-01-26T09:15:49.653Z,31.70
2019-01-26T09:16:49.647Z,32.10
2019-01-26T09:17:49.632Z,34.20
2019-01-26T09:18:49.634Z,33.00
2019-01-26T09:19:49.644Z,31.50
2019-01-26T09:20:49.598Z,30.70
2019-01-26T09:21:49.582Z,31.00
2019-01-26T09:22:49.575Z,30.00
2019-01-26T09:23:49.566Z,30.10
2019-01-26T09:24:49.555Z,30.40
2019-01-26T09:25:49.613Z,29.00
2019-01-26T09:26:49.536Z,30.70
2019-01-26T09:27:49.529Z,30.20
2019-01-26T09:28:49.509Z,30.50
2019-01-26T09:29:49.500Z,29.90
2019-01-26T09:30:49.530Z,29.00
2019-01-26T09:31:49.484Z,29.30
2019-01-26T09:32:49.465Z,28.30
2019-01-26T09:33:49.458Z,26.90
2019-01-26T09:34:49.449Z,28.30
2019-01-26T09:35:49.437Z,27.60
2019-01-26T09:36:49.449Z,26.30
2019-01-26T09:37:49.415Z,27.50
2019-01-26T09:38:49.407Z,28.60
2019-01-26T09:39:49.393Z,28.10
2019-01-26T09:40:49.393Z,27.30
2019-01-26T09:41:49.365Z,27.60
2019-01-26T09:42:49.357Z,26.40
2019-01-26T09:43:49.384Z,27.10
2019-01-26T09:44:49.338Z,26.80
2019-01-26T09:45:49.361Z,25.70
2019-01-26T09:46:49.315Z,24.60
2019-01-26T09:47:49.299Z,26.60
2019-01-26T09:48:49.307Z,23.60
2019-01-26T09:49:49.279Z,28.30
2019-01-26T09:50:49.277Z,25.90
2019-01-26T09:51:49.318Z,24.20
2019-01-26T09:52:49.252Z,25.70
2019-01-26T09:53:49.244Z,26.40
2019-01-26T09:54:49.224Z,25.50
2019-01-26T09:55:49.227Z,25.60
2019-01-26T09:56:49.208Z,24.80
2019-01-26T09:57:49.213Z,25.00
2019-01-26T09:58:49.187Z,22.50
2019-01-26T09:59:49.175Z,25.30
2019-01-26T10:00:49.163Z,26.30
2019-01-26T10:01:49.147Z,25.00
2019-01-26T10:02:49.135Z,23.80
2019-01-26T10:03:49.460Z,24.50
2019-01-26T10:04:49.115Z,23.10
2019-01-26T10:05:49.110Z,23.50
2019-01-26T10:06:49.093Z,21.50
2019-01-26T10:07:49.085Z,23.10
2019-01-26T10:08:49.201Z,22.90
2019-01-26T10:09:49.061Z,23.50
2019-01-26T10:10:49.054Z,22.30
2019-01-26T10:11:49.038Z,20.60
2019-01-26T10:12:49.030Z,21.40
2019-01-26T10:13:49.031Z,21.60
2019-01-26T10:14:49.051Z,23.20
2019-01-26T10:15:49.007Z,22.60
2019-01-26T10:16:48.988Z,22.10
2019-01-26T10:17:48.987Z,20.70
2019-01-26T10:18:53.499Z,22.80
2019-01-26T10:19:49.949Z,21.10
2019-01-26T10:20:48.956Z,21.40
2019-01-26T10:21:48.927Z,22.80
2019-01-26T10:22:48.925Z,23.30
2019-01-26T10:23:48.904Z,23.40
2019-01-26T10:24:48.904Z,22.60
2019-01-26T10:25:49.067Z,24.50
2019-01-26T10:26:48.872Z,22.40
2019-01-26T10:27:48.875Z,23.10
2019-01-26T10:28:48.859Z,20.90
2019-01-26T10:29:48.845Z,21.20
2019-01-26T10:30:49.183Z,20.10
2019-01-26T10:31:48.817Z,21.40
2019-01-26T10:32:48.807Z,20.20
2019-01-26T10:33:48.797Z,20.70
2019-01-26T10:34:48.854Z,21.90
2019-01-26T10:35:48.790Z,22.60
2019-01-26T10:36:48.825Z,20.90
2019-01-26T10:37:48.761Z,22.20
2019-01-26T10:38:48.744Z,22.60
2019-01-26T10:39:48.733Z,22.20
2019-01-26T10:40:48.724Z,20.80
2019-01-26T10:41:48.746Z,19.20
2019-01-26T10:42:48.695Z,20.20
2019-01-26T10:43:48.687Z,21.40
2019-01-26T10:44:49.318Z,20.50
2019-01-26T10:45:48.663Z,19.80
2019-01-26T10:46:48.664Z,18.70
2019-01-26T10:47:48.689Z,18.80
2019-01-26T10:48:48.649Z,18.60
2019-01-26T10:49:48.621Z,19.90
2019-01-26T10:50:48.614Z,19.10
2019-01-26T10:51:48.601Z,19.70
2019-01-26T10:52:48.811Z,18.70
2019-01-26T10:53:48.718Z,18.90
2019-01-26T10:54:48.567Z,22.10
2019-01-26T10:55:48.559Z,19.30
2019-01-26T10:56:48.541Z,18.00
2019-01-26T10:57:48.646Z,19.40
2019-01-26T10:58:48.532Z,18.50
2019-01-26T10:59:48.514Z,18.70
2019-01-26T11:00:48.507Z,19.90
2019-01-26T11:01:51.135Z,18.80
2019-01-26T11:02:48.477Z,22.50
2019-01-26T11:03:48.481Z,18.70
2019-01-26T11:04:48.462Z,17.40
2019-01-26T11:05:48.449Z,17.70
2019-01-26T11:06:48.431Z,15.50
2019-01-26T11:07:48.434Z,16.60
2019-01-26T11:08:48.424Z,17.90
2019-01-26T11:09:48.402Z,16.80
2019-01-26T11:10:48.393Z,16.10
2019-01-26T11:11:48.375Z,17.00
2019-01-26T11:12:48.373Z,15.40
2019-01-26T11:13:48.411Z,16.50
2019-01-26T11:14:48.347Z,16.60
2019-01-26T11:15:48.366Z,16.90
2019-01-26T11:16:48.328Z,17.10
2019-01-26T11:17:48.311Z,15.60
2019-01-26T11:18:48.323Z,14.80
2019-01-26T11:19:48.319Z,16.40
2019-01-26T11:20:48.279Z,15.60
2019-01-26T11:21:48.281Z,14.90
2019-01-26T11:22:48.256Z,13.90
2019-01-26T11:23:48.245Z,13.80
2019-01-26T11:24:48.285Z,15.20
2019-01-26T11:25:48.227Z,13.50
2019-01-26T11:26:49.408Z,13.70
2019-01-26T11:27:48.201Z,13.40
2019-01-26T11:28:48.196Z,14.80
2019-01-26T11:29:48.186Z,13.00
2019-01-26T11:30:48.225Z,12.50
2019-01-26T11:31:48.174Z,12.70
2019-01-26T11:32:48.176Z,12.20
2019-01-26T11:33:48.142Z,12.20
2019-01-26T11:34:48.138Z,12.40
2019-01-26T11:35:48.113Z,12.20
2019-01-26T11:36:48.231Z,12.70
2019-01-26T11:37:48.206Z,13.60
2019-01-26T11:38:48.090Z,14.10
2019-01-26T11:39:48.073Z,13.50
2019-01-26T11:40:48.080Z,12.90
2019-01-26T11:41:48.067Z,12.60
2019-01-26T11:42:48.054Z,13.10
2019-01-26T11:43:48.121Z,11.60
2019-01-26T11:44:48.024Z,12.40
2019-01-26T11:45:48.011Z,12.10
2019-01-26T11:46:48.004Z,11.90
2019-01-26T11:47:47.980Z,11.20
2019-01-26T11:48:47.970Z,12.00
2019-01-26T11:49:47.962Z,11.70
2019-01-26T11:50:47.951Z,12.70
2019-01-26T11:51:47.960Z,11.60
2019-01-26T11:52:47.930Z,11.30
2019-01-26T11:53:47.921Z,11.00
2019-01-26T11:54:47.904Z,11.20
2019-01-26T11:55:47.898Z,10.20
2019-01-26T11:56:47.902Z,10.80
2019-01-26T11:57:47.922Z,10.70
2019-01-26T11:58:47.864Z,10.30
2019-01-26T11:59:47.855Z,10.40
2019-01-26T12:00:47.841Z,10.20
2019-01-26T12:01:47.825Z,10.50
2019-01-26T12:02:47.820Z,10.00
2019-01-26T12:03:47.819Z,10.60
2019-01-26T12:04:47.799Z,11.60
2019-01-26T12:05:47.784Z,11.50
2019-01-26T12:06:47.771Z,10.60
2019-01-26T12:07:47.776Z,10.50
2019-01-26T12:08:47.756Z,11.20
2019-01-26T12:09:47.752Z,11.20
2019-01-26T12:10:47.732Z,11.90
2019-01-26T12:11:47.729Z,11.70
2019-01-26T12:12:47.748Z,11.30
2019-01-26T12:13:47.693Z,10.50
2019-01-26T12:14:47.700Z,11.10
2019-01-26T12:15:47.694Z,9.90
2019-01-26T12:16:47.663Z,11.10
2019-01-26T12:17:47.654Z,10.70
2019-01-26T12:18:47.802Z,10.20
2019-01-26T12:19:47.673Z,10.80
2019-01-26T12:20:47.625Z,10.10
2019-01-26T12:21:47.662Z,10.90
2019-01-26T12:22:47.603Z,11.20
2019-01-26T12:23:47.587Z,12.10
2019-01-26T12:24:47.572Z,10.80
2019-01-26T12:25:47.667Z,10.20
2019-01-26T12:26:47.560Z,10.50
2019-01-26T12:27:47.546Z,10.60
2019-01-26T12:28:47.537Z,12.20
2019-01-26T12:29:47.522Z,11.80
2019-01-26T12:30:47.569Z,10.70
2019-01-26T12:31:47.502Z,9.50
2019-01-26T12:32:47.486Z,9.50
2019-01-26T12:33:47.484Z,10.00
2019-01-26T12:34:47.471Z,9.00
2019-01-26T12:35:47.464Z,8.90
2019-01-26T12:36:47.488Z,8.90
2019-01-26T12:37:47.436Z,9.20
2019-01-26T12:38:47.419Z,8.60
2019-01-26T12:39:47.410Z,8.60
2019-01-26T12:40:47.402Z,8.50
2019-01-26T12:41:47.386Z,8.90
2019-01-26T12:42:47.396Z,9.70
2019-01-26T12:43:47.364Z,9.30
2019-01-26T12:44:47.359Z,9.40
2019-01-26T12:45:47.347Z,8.50
2019-01-26T12:46:47.336Z,8.40
2019-01-26T12:47:47.336Z,8.00
2019-01-26T12:48:47.312Z,7.30
2019-01-26T12:49:47.299Z,7.80
2019-01-26T12:50:47.295Z,7.30
2019-01-26T12:51:47.286Z,8.30
2019-01-26T12:52:47.280Z,8.10
2019-01-26T12:53:47.255Z,8.80